Dati Storici

Data ora Umidita' aria (%) Temperatura aria (°C) Rad globale (W/m²) Gonioanemometro (°) Tacoanemometro (m/s) Pioggia (mm)
30-10-2012 23:30 72.8 % 7.71 3.567 13.432 1.815 0
30-10-2012 23:20 72.2 % 7.74 3.606 20.18 2.864 0
30-10-2012 23:10 71.7 % 7.89 3.302 29.077 1.862 0
30-10-2012 23:00 70.7 % 7.974 3.289 26.505 1.132 0
30-10-2012 22:50 69.9 % 8.093 3.276 43.766 1.057 0
30-10-2012 22:40 68.9 % 8.198 3.276 15.046 0.687 0
30-10-2012 22:30 67.7 % 8.321 3.109 57.73 1.161 0
30-10-2012 22:20 67.5 % 8.436 3.263 19.295 0.844 0
30-10-2012 22:10 67.7 % 8.483 3.096 19.558 1.463 0
30-10-2012 22:00 67.6 % 8.365 2.673 234.22 0.922 0
30-10-2012 21:50 66.6 % 8.506 2.776 42.601 1.32 0
30-10-2012 21:40 65.5 % 8.679 3.096 30.298 1.547 0
30-10-2012 21:30 65.2 % 8.864 3.327 50.002 1.154 0
30-10-2012 21:20 66.2 % 8.835 3.865 2.267 0.107 0
30-10-2012 21:10 66.2 % 8.744 3.878 348.77 0.823 0
30-10-2012 21:00 67.7 % 8.565 3.955 45.758 0.1 0
30-10-2012 20:50 67.8 % 8.453 3.84 7.527 1.127 0
30-10-2012 20:40 67.9 % 8.461 4.006 41.265 0.733 0
30-10-2012 20:30 68 % 8.439 3.981 13.3 0.657 0
30-10-2012 20:20 68.5 % 8.499 3.981 7.592 0.861 0

I dati sono presentati in modo automatico a scopo informativo. In seguito a verifica i dati possono subire modifiche o essere invalidati e non riportati negli archivi definitivi.